createdAt,value
2018-07-26T00:00:35.138Z,20.98
2018-07-26T00:03:06.169Z,20.96
2018-07-26T00:05:37.370Z,20.96
2018-07-26T00:08:08.369Z,20.95
2018-07-26T00:10:39.267Z,20.93
2018-07-26T00:13:10.636Z,20.91
2018-07-26T00:15:41.727Z,20.96
2018-07-26T00:18:12.714Z,20.98
2018-07-26T00:20:43.514Z,20.91
2018-07-26T00:23:14.706Z,21.00
2018-07-26T00:25:45.721Z,20.98
2018-07-26T00:28:17.232Z,21.04
2018-07-26T00:30:48.453Z,20.99
2018-07-26T00:33:19.171Z,20.98
2018-07-26T00:35:50.087Z,20.91
2018-07-26T00:38:20.862Z,20.93
2018-07-26T00:40:51.663Z,20.97
2018-07-26T00:43:22.666Z,20.93
2018-07-26T00:45:53.759Z,20.93
2018-07-26T00:48:25.612Z,20.94
2018-07-26T00:50:56.625Z,20.94
2018-07-26T00:53:27.592Z,20.95
2018-07-26T00:55:59.419Z,20.96
2018-07-26T00:58:30.505Z,20.95
2018-07-26T01:01:01.328Z,21.01
2018-07-26T01:03:32.382Z,21.07
2018-07-26T01:06:03.228Z,20.98
2018-07-26T01:08:34.034Z,21.05
2018-07-26T01:11:04.895Z,20.90
2018-07-26T01:13:35.716Z,20.95
2018-07-26T01:16:06.549Z,20.93
2018-07-26T01:18:38.319Z,20.84
2018-07-26T01:21:09.200Z,20.87
2018-07-26T01:23:40.565Z,20.86
2018-07-26T01:26:12.100Z,20.85
2018-07-26T01:28:43.840Z,20.82
2018-07-26T01:31:14.749Z,20.95
2018-07-26T01:33:45.729Z,20.86
2018-07-26T01:36:16.862Z,20.86
2018-07-26T01:38:47.773Z,20.83
2018-07-26T01:41:18.865Z,20.84
2018-07-26T01:44:00.420Z,20.90
2018-07-26T01:46:31.329Z,20.85
2018-07-26T01:49:03.027Z,20.89
2018-07-26T01:51:33.685Z,20.91
2018-07-26T01:54:04.752Z,20.97
2018-07-26T01:56:35.579Z,20.93
2018-07-26T01:59:07.453Z,20.91
2018-07-26T02:01:38.582Z,20.93
2018-07-26T02:04:09.694Z,20.95
2018-07-26T02:06:40.679Z,20.92
2018-07-26T02:09:12.599Z,20.99
2018-07-26T02:11:43.940Z,21.06
2018-07-26T02:14:19.844Z,20.94
2018-07-26T02:16:50.691Z,20.91
2018-07-26T02:19:21.898Z,20.88
2018-07-26T02:21:53.138Z,20.88
2018-07-26T02:24:24.131Z,20.82
2018-07-26T02:26:55.128Z,20.71
2018-07-26T02:29:26.752Z,20.78
2018-07-26T02:31:59.144Z,20.77
2018-07-26T02:34:30.231Z,20.80
2018-07-26T02:37:03.278Z,20.73
2018-07-26T02:39:35.273Z,20.79
2018-07-26T02:42:06.425Z,20.59
2018-07-26T02:44:37.527Z,20.64
2018-07-26T02:47:08.515Z,20.58
2018-07-26T02:49:39.510Z,20.66
2018-07-26T02:52:10.615Z,20.58
2018-07-26T02:54:41.409Z,20.58
2018-07-26T02:57:12.630Z,20.55
2018-07-26T02:59:44.480Z,20.64
2018-07-26T03:02:17.030Z,20.54
2018-07-26T03:04:48.270Z,20.57
2018-07-26T03:07:19.259Z,20.61
2018-07-26T03:09:50.253Z,20.72
2018-07-26T03:12:21.475Z,20.73
2018-07-26T03:14:52.359Z,20.83
2018-07-26T03:17:24.241Z,20.88
2018-07-26T03:19:56.533Z,20.87
2018-07-26T03:22:27.733Z,20.91
2018-07-26T03:24:58.938Z,21.06
2018-07-26T03:27:30.237Z,21.10
2018-07-26T03:30:02.204Z,21.14
2018-07-26T03:32:33.505Z,21.24
2018-07-26T03:35:04.828Z,21.24
2018-07-26T03:37:36.093Z,21.14
2018-07-26T03:40:08.251Z,21.08
2018-07-26T03:42:39.408Z,21.45
2018-07-26T03:45:10.456Z,21.99
2018-07-26T03:47:43.217Z,22.72
2018-07-26T03:50:14.413Z,23.48
2018-07-26T03:52:45.313Z,23.55
2018-07-26T03:55:16.292Z,23.93
2018-07-26T03:57:47.730Z,23.85
2018-07-26T04:00:19.524Z,24.28
2018-07-26T04:02:50.665Z,25.03
2018-07-26T04:05:21.732Z,25.31
2018-07-26T04:07:54.257Z,25.49
2018-07-26T04:10:25.822Z,25.86
2018-07-26T04:12:56.524Z,26.11
2018-07-26T04:15:28.712Z,25.80
2018-07-26T04:18:05.392Z,25.57
2018-07-26T04:20:36.542Z,26.12
2018-07-26T04:23:08.570Z,25.69
2018-07-26T04:25:39.631Z,25.70
2018-07-26T04:28:10.461Z,24.88
2018-07-26T04:30:43.143Z,24.46
2018-07-26T04:33:13.987Z,24.66
2018-07-26T04:35:45.314Z,24.44
2018-07-26T04:38:16.131Z,24.70
2018-07-26T04:40:47.285Z,24.84
2018-07-26T04:43:18.151Z,26.08
2018-07-26T04:45:49.259Z,26.12
2018-07-26T04:48:20.141Z,25.16
2018-07-26T04:50:51.874Z,24.31
2018-07-26T04:53:24.246Z,24.36
2018-07-26T04:55:55.371Z,24.31
2018-07-26T04:58:26.250Z,24.36
2018-07-26T05:00:58.149Z,24.66
2018-07-26T05:03:29.273Z,24.03
2018-07-26T05:06:00.321Z,24.07
2018-07-26T05:08:31.438Z,24.36
2018-07-26T05:11:02.437Z,25.87
2018-07-26T05:13:33.384Z,27.06
2018-07-26T05:16:04.415Z,29.07
2018-07-26T05:18:35.428Z,30.17
2018-07-26T05:21:06.334Z,28.72
2018-07-26T05:23:37.428Z,29.89
2018-07-26T05:26:09.788Z,31.40
2018-07-26T05:28:40.900Z,32.24
2018-07-26T05:33:57.614Z,30.55
2018-07-26T05:36:28.619Z,30.62
2018-07-26T05:38:59.743Z,31.31
2018-07-26T05:41:30.991Z,33.20
2018-07-26T05:44:02.059Z,34.03
2018-07-26T05:46:33.253Z,33.96
2018-07-26T05:49:04.425Z,34.04
2018-07-26T05:51:35.412Z,34.11
2018-07-26T05:54:06.717Z,34.58
2018-07-26T05:56:37.854Z,33.97
2018-07-26T05:59:10.877Z,34.53
2018-07-26T06:01:42.658Z,32.98
2018-07-26T06:04:14.744Z,32.68
2018-07-26T06:06:46.190Z,32.52
2018-07-26T06:09:17.140Z,35.17
2018-07-26T06:11:48.380Z,35.92
2018-07-26T06:14:19.503Z,38.07
2018-07-26T06:16:51.512Z,38.28
2018-07-26T06:19:22.356Z,37.89
2018-07-26T06:21:53.597Z,38.58
2018-07-26T06:24:24.379Z,37.35
2018-07-26T06:26:55.846Z,36.02
2018-07-26T06:29:27.088Z,35.64
2018-07-26T06:31:59.033Z,33.26
2018-07-26T06:34:30.036Z,33.85
2018-07-26T06:37:01.406Z,33.81
2018-07-26T06:39:32.640Z,34.45
2018-07-26T06:42:04.682Z,35.46
2018-07-26T06:44:35.824Z,35.94
2018-07-26T06:47:08.022Z,35.35
2018-07-26T06:49:39.114Z,34.04
2018-07-26T06:52:10.111Z,31.56
2018-07-26T06:54:41.057Z,30.01
2018-07-26T06:57:12.105Z,29.73
2018-07-26T06:59:46.092Z,29.49
2018-07-26T07:02:17.996Z,28.51
2018-07-26T07:04:49.406Z,29.00
2018-07-26T07:07:20.670Z,28.63
2018-07-26T07:09:51.975Z,28.04
2018-07-26T07:12:22.961Z,28.07
2018-07-26T07:14:54.393Z,28.49
2018-07-26T07:17:26.259Z,28.53
2018-07-26T07:19:57.714Z,28.88
2018-07-26T07:22:28.834Z,29.24
2018-07-26T07:24:59.565Z,29.29
2018-07-26T07:27:30.720Z,29.41
2018-07-26T07:30:03.355Z,29.12
2018-07-26T07:32:35.427Z,29.28
2018-07-26T07:35:06.704Z,29.62
2018-07-26T07:37:38.317Z,30.14
2018-07-26T07:40:10.179Z,29.53
2018-07-26T07:42:41.269Z,28.75
2018-07-26T07:45:12.517Z,28.74
2018-07-26T07:47:43.748Z,28.99
2018-07-26T07:50:14.859Z,29.61
2018-07-26T07:52:45.924Z,29.74
2018-07-26T07:55:18.843Z,29.55
2018-07-26T07:57:50.742Z,30.11
2018-07-26T08:00:21.793Z,30.50
2018-07-26T08:02:55.334Z,31.00
2018-07-26T08:05:26.614Z,31.59
2018-07-26T08:07:58.528Z,31.71
2018-07-26T08:10:30.597Z,31.95
2018-07-26T08:13:02.021Z,31.17
2018-07-26T08:15:33.146Z,30.94
2018-07-26T08:18:04.403Z,30.55
2018-07-26T08:20:35.586Z,30.63
2018-07-26T08:23:06.945Z,30.88
2018-07-26T08:25:38.036Z,31.08
2018-07-26T08:28:09.886Z,30.86
2018-07-26T08:30:40.890Z,30.53
2018-07-26T08:33:12.395Z,30.57
2018-07-26T08:35:43.456Z,30.37
2018-07-26T08:38:14.911Z,30.68
2018-07-26T08:40:46.045Z,29.58
2018-07-26T08:43:17.177Z,29.69
2018-07-26T08:45:48.196Z,29.64
2018-07-26T08:48:19.604Z,29.97
2018-07-26T08:50:51.594Z,30.05
2018-07-26T08:53:22.752Z,30.18
2018-07-26T08:55:53.998Z,30.29
2018-07-26T08:58:25.186Z,30.37
2018-07-26T09:00:57.329Z,30.78
2018-07-26T09:03:28.176Z,31.02
2018-07-26T09:05:59.326Z,31.32
2018-07-26T09:08:30.847Z,31.32
2018-07-26T09:11:02.718Z,30.75
2018-07-26T09:13:33.995Z,31.34
2018-07-26T09:16:05.780Z,31.48
2018-07-26T09:18:36.790Z,31.74
2018-07-26T09:21:08.601Z,31.63
2018-07-26T09:23:39.498Z,31.65
2018-07-26T09:26:10.841Z,31.98
2018-07-26T09:28:41.978Z,32.05
2018-07-26T09:31:13.332Z,32.25
2018-07-26T09:33:44.744Z,32.32
2018-07-26T09:36:16.033Z,32.57
2018-07-26T09:38:47.280Z,31.67
2018-07-26T09:41:19.634Z,32.16
2018-07-26T09:43:50.808Z,32.03
2018-07-26T09:46:22.233Z,32.00
2018-07-26T09:48:53.466Z,31.57
2018-07-26T09:51:25.281Z,30.91
2018-07-26T09:53:56.528Z,30.58
2018-07-26T09:56:27.549Z,30.07
2018-07-26T09:58:58.837Z,29.62
2018-07-26T10:01:31.872Z,30.10
2018-07-26T10:04:03.533Z,30.84
2018-07-26T10:06:36.843Z,30.95
2018-07-26T10:09:12.925Z,30.85
2018-07-26T10:11:44.522Z,30.59
2018-07-26T10:14:16.027Z,30.55
2018-07-26T10:16:46.997Z,30.22
2018-07-26T10:19:17.932Z,30.08
2018-07-26T10:21:48.962Z,29.44
2018-07-26T10:24:20.090Z,30.04
2018-07-26T10:26:52.231Z,30.03
2018-07-26T10:29:24.548Z,29.89
2018-07-26T10:31:55.848Z,30.04
2018-07-26T10:34:26.791Z,29.75
2018-07-26T10:36:58.015Z,30.13
2018-07-26T10:39:29.754Z,30.37
2018-07-26T10:42:00.767Z,30.64
2018-07-26T10:44:31.677Z,30.95
2018-07-26T10:47:03.728Z,31.13
2018-07-26T10:49:41.645Z,30.97
2018-07-26T10:52:13.788Z,30.72
2018-07-26T10:54:44.679Z,30.61
2018-07-26T10:57:15.985Z,30.41
2018-07-26T10:59:47.057Z,30.84
2018-07-26T11:02:18.449Z,31.07
2018-07-26T11:04:49.524Z,30.57
2018-07-26T11:07:20.685Z,30.51
2018-07-26T11:09:51.808Z,30.40
2018-07-26T11:12:22.750Z,30.31
2018-07-26T11:14:55.102Z,30.39
2018-07-26T11:17:25.924Z,30.27
2018-07-26T11:19:56.945Z,30.25
2018-07-26T11:22:28.243Z,30.19
2018-07-26T11:25:00.126Z,30.42
2018-07-26T11:27:31.198Z,30.39
2018-07-26T11:30:05.263Z,30.57
2018-07-26T11:32:36.690Z,30.23
2018-07-26T11:35:09.239Z,30.40
2018-07-26T11:37:41.426Z,30.07
2018-07-26T11:40:12.798Z,29.91
2018-07-26T11:42:44.123Z,29.87
2018-07-26T11:45:17.068Z,29.49
2018-07-26T11:47:48.342Z,29.62
2018-07-26T11:50:19.900Z,29.64
2018-07-26T11:52:50.943Z,29.83
2018-07-26T11:55:22.235Z,29.48
2018-07-26T11:57:54.636Z,29.38
2018-07-26T12:00:25.731Z,29.07
2018-07-26T12:02:57.551Z,29.30
2018-07-26T12:05:32.633Z,29.60
2018-07-26T12:08:04.024Z,29.74
2018-07-26T12:10:35.928Z,29.57
2018-07-26T12:13:06.927Z,29.85
2018-07-26T12:15:37.977Z,29.07
2018-07-26T12:18:09.322Z,29.18
2018-07-26T12:20:40.577Z,29.47
2018-07-26T12:23:12.633Z,29.84
2018-07-26T12:25:43.856Z,29.83
2018-07-26T12:28:15.348Z,29.66
2018-07-26T12:30:46.456Z,29.16
2018-07-26T12:33:17.944Z,29.16
2018-07-26T12:35:49.968Z,29.64
2018-07-26T12:38:27.287Z,30.09
2018-07-26T12:40:58.757Z,30.13
2018-07-26T12:43:30.813Z,30.31
2018-07-26T12:46:02.336Z,30.30
2018-07-26T12:48:33.531Z,30.38
2018-07-26T12:51:04.665Z,30.43
2018-07-26T12:53:36.613Z,30.05
2018-07-26T12:56:07.893Z,30.08
2018-07-26T12:58:39.350Z,30.30
2018-07-26T13:01:10.615Z,30.44
2018-07-26T13:03:45.753Z,30.48
2018-07-26T13:06:19.530Z,30.23
2018-07-26T13:08:51.843Z,30.23
2018-07-26T13:11:28.711Z,30.14
2018-07-26T13:14:00.599Z,29.91
2018-07-26T13:16:31.655Z,30.19
2018-07-26T13:19:03.282Z,30.29
2018-07-26T13:21:47.977Z,30.13
2018-07-26T13:24:26.081Z,30.39
2018-07-26T13:26:57.996Z,30.51
2018-07-26T13:29:30.741Z,30.67
2018-07-26T13:32:01.957Z,30.66
2018-07-26T13:34:32.917Z,30.85
2018-07-26T13:37:03.960Z,30.57
2018-07-26T13:39:35.838Z,30.27
2018-07-26T13:42:07.666Z,30.62
2018-07-26T13:44:39.073Z,30.87
2018-07-26T13:47:10.297Z,31.15
2018-07-26T13:49:41.822Z,31.39
2018-07-26T13:52:12.710Z,31.41
2018-07-26T13:54:46.357Z,31.49
2018-07-26T13:57:17.857Z,31.60
2018-07-26T13:59:49.516Z,31.59
2018-07-26T14:02:20.669Z,31.62
2018-07-26T14:04:52.879Z,31.09
2018-07-26T14:07:24.194Z,30.44
2018-07-26T14:09:55.556Z,30.67
2018-07-26T14:12:26.709Z,30.92
2018-07-26T14:14:58.096Z,30.89
2018-07-26T14:17:29.205Z,30.59
2018-07-26T14:20:00.354Z,29.48
2018-07-26T14:22:31.573Z,28.60
2018-07-26T14:25:02.829Z,26.89
2018-07-26T14:27:33.966Z,25.92
2018-07-26T14:30:06.135Z,25.59
2018-07-26T14:32:38.932Z,25.02
2018-07-26T14:35:10.000Z,24.27
2018-07-26T14:37:41.400Z,23.97
2018-07-26T14:40:12.504Z,23.66
2018-07-26T14:42:44.008Z,23.50
2018-07-26T14:45:16.263Z,23.25
2018-07-26T14:47:47.944Z,23.23
2018-07-26T14:50:19.342Z,23.09
2018-07-26T14:52:50.943Z,22.99
2018-07-26T14:55:22.498Z,22.83
2018-07-26T14:57:54.888Z,22.40
2018-07-26T15:00:26.228Z,22.30
2018-07-26T15:03:02.098Z,22.14
2018-07-26T15:05:33.484Z,22.10
2018-07-26T15:08:05.123Z,22.14
2018-07-26T15:10:36.962Z,22.19
2018-07-26T15:13:09.274Z,22.27
2018-07-26T15:15:44.448Z,22.26
2018-07-26T15:18:15.568Z,22.22
2018-07-26T15:20:46.974Z,22.18
2018-07-26T15:23:18.072Z,22.20
2018-07-26T15:25:49.076Z,22.26
2018-07-26T15:28:20.505Z,22.29
2018-07-26T15:30:53.121Z,22.37
2018-07-26T15:33:24.159Z,22.24
2018-07-26T15:35:55.202Z,22.28
2018-07-26T15:38:26.457Z,22.35
2018-07-26T15:40:59.302Z,22.35
2018-07-26T15:43:30.824Z,22.34
2018-07-26T15:46:01.726Z,22.35
2018-07-26T15:48:32.726Z,22.30
2018-07-26T15:51:04.080Z,22.31
2018-07-26T15:53:35.387Z,22.31
2018-07-26T15:56:06.600Z,22.36
2018-07-26T15:58:37.403Z,22.36
2018-07-26T16:01:08.661Z,22.39
2018-07-26T16:03:39.883Z,22.42
2018-07-26T16:06:10.767Z,22.44
2018-07-26T16:08:41.899Z,22.52
2018-07-26T16:11:13.227Z,22.50
2018-07-26T16:13:44.609Z,22.49
2018-07-26T16:16:16.628Z,22.53
2018-07-26T16:18:48.078Z,22.61
2018-07-26T16:21:19.300Z,22.63
2018-07-26T16:23:51.420Z,22.73
2018-07-26T16:26:23.779Z,22.71
2018-07-26T16:28:54.829Z,22.81
2018-07-26T16:31:26.681Z,22.53
2018-07-26T16:33:59.063Z,22.47
2018-07-26T16:36:30.148Z,22.54
2018-07-26T16:39:01.355Z,22.54
2018-07-26T16:41:32.530Z,22.52
2018-07-26T16:44:03.850Z,22.61
2018-07-26T16:46:36.014Z,22.75
2018-07-26T16:49:08.391Z,22.95
2018-07-26T16:51:40.645Z,23.14
2018-07-26T16:54:13.118Z,23.25
2018-07-26T16:56:44.843Z,23.40
2018-07-26T16:59:15.972Z,23.53
2018-07-26T17:01:47.593Z,23.43
2018-07-26T17:04:19.340Z,23.44
2018-07-26T17:06:51.006Z,23.39
2018-07-26T17:09:22.191Z,23.22
2018-07-26T17:11:54.079Z,22.91
2018-07-26T17:14:26.087Z,22.85
2018-07-26T17:16:58.755Z,23.06
2018-07-26T17:19:32.897Z,23.15
2018-07-26T17:22:04.552Z,23.15
2018-07-26T17:24:36.443Z,23.22
2018-07-26T17:27:08.074Z,23.09
2018-07-26T17:29:42.036Z,23.07
2018-07-26T17:32:13.532Z,22.88
2018-07-26T17:34:45.469Z,22.85
2018-07-26T17:37:18.034Z,22.96
2018-07-26T17:39:50.713Z,22.98
2018-07-26T17:42:22.537Z,22.95
2018-07-26T17:44:53.730Z,22.97
2018-07-26T17:47:24.933Z,23.01
2018-07-26T17:49:56.377Z,23.04
2018-07-26T17:52:27.733Z,23.06
2018-07-26T17:54:59.213Z,23.12
2018-07-26T17:57:32.536Z,23.12
2018-07-26T18:00:06.851Z,23.19
2018-07-26T18:02:38.833Z,23.22
2018-07-26T18:05:11.226Z,23.07
2018-07-26T18:07:42.964Z,22.98
2018-07-26T18:10:14.112Z,23.10
2018-07-26T18:12:46.476Z,23.09
2018-07-26T18:15:19.534Z,23.10
2018-07-26T18:17:52.722Z,23.05
2018-07-26T18:20:25.712Z,22.91
2018-07-26T18:22:56.970Z,22.86
2018-07-26T18:25:30.350Z,23.03
2018-07-26T18:28:01.878Z,23.02
2018-07-26T18:30:38.188Z,23.00
2018-07-26T18:33:10.112Z,23.11
2018-07-26T18:35:41.411Z,23.19
2018-07-26T18:38:14.361Z,23.15
2018-07-26T18:40:46.548Z,23.25
2018-07-26T18:43:18.007Z,23.34
2018-07-26T18:45:49.605Z,23.38
2018-07-26T18:48:21.138Z,23.38
2018-07-26T18:50:53.053Z,23.44
2018-07-26T18:53:24.483Z,23.41
2018-07-26T18:55:56.403Z,23.42
2018-07-26T18:58:29.197Z,23.40
2018-07-26T19:01:00.592Z,23.22
2018-07-26T19:03:31.778Z,23.18
2018-07-26T19:06:04.077Z,23.15
2018-07-26T19:08:36.281Z,23.29
2018-07-26T19:11:08.051Z,23.27
2018-07-26T19:13:39.387Z,23.37
2018-07-26T19:16:12.037Z,23.31
2018-07-26T19:18:44.808Z,23.17
2018-07-26T19:21:17.086Z,23.23
2018-07-26T19:23:49.094Z,23.03
2018-07-26T19:26:20.502Z,23.02
2018-07-26T19:28:52.381Z,23.03
2018-07-26T19:31:25.502Z,23.04
2018-07-26T19:33:56.706Z,22.96
2018-07-26T19:36:28.032Z,22.84
2018-07-26T19:38:59.279Z,22.81
2018-07-26T19:41:31.754Z,22.70
2018-07-26T19:44:06.764Z,22.96
2018-07-26T19:46:41.600Z,22.95
2018-07-26T19:49:13.071Z,23.00
2018-07-26T19:51:43.998Z,22.93
2018-07-26T19:54:17.597Z,22.77
2018-07-26T19:56:49.312Z,22.73
2018-07-26T19:59:20.709Z,22.73
2018-07-26T20:01:51.999Z,22.54
2018-07-26T20:04:25.232Z,22.69
2018-07-26T20:06:56.664Z,22.69
2018-07-26T20:09:28.137Z,22.69
2018-07-26T20:12:00.452Z,22.65
2018-07-26T20:14:31.695Z,22.80
2018-07-26T20:17:03.081Z,22.94
2018-07-26T20:19:35.813Z,22.88
2018-07-26T20:22:07.531Z,22.83
2018-07-26T20:24:40.937Z,22.79
2018-07-26T20:27:12.287Z,22.81
2018-07-26T20:29:43.471Z,22.77
2018-07-26T20:32:22.047Z,22.63
2018-07-26T20:34:53.237Z,22.67
2018-07-26T20:37:24.258Z,22.70
2018-07-26T20:39:55.333Z,22.63
2018-07-26T20:42:28.824Z,22.66
2018-07-26T20:45:02.078Z,22.72
2018-07-26T20:47:33.478Z,22.71
2018-07-26T20:50:08.374Z,22.75
2018-07-26T20:52:40.045Z,22.87
2018-07-26T20:55:11.652Z,22.76
2018-07-26T20:57:43.151Z,22.82
2018-07-26T21:00:15.149Z,22.88
2018-07-26T21:02:46.325Z,22.87
2018-07-26T21:05:18.090Z,22.86
2018-07-26T21:07:50.838Z,22.77
2018-07-26T21:10:23.005Z,22.69
2018-07-26T21:12:54.275Z,22.63
2018-07-26T21:15:25.499Z,22.50
2018-07-26T21:17:56.774Z,22.52
2018-07-26T21:20:28.923Z,22.60
2018-07-26T21:23:00.223Z,22.54
2018-07-26T21:25:32.186Z,22.55
2018-07-26T21:28:03.103Z,22.46
2018-07-26T21:30:34.429Z,22.45
2018-07-26T21:33:06.571Z,22.37
2018-07-26T21:35:37.964Z,22.42
2018-07-26T21:38:09.054Z,22.47
2018-07-26T21:40:40.787Z,22.43
2018-07-26T21:43:12.160Z,22.49
2018-07-26T21:45:43.249Z,22.49
2018-07-26T21:48:15.262Z,22.42
2018-07-26T21:50:46.714Z,22.43
2018-07-26T21:53:17.810Z,22.46
2018-07-26T21:55:51.905Z,22.38
2018-07-26T21:58:23.259Z,22.38
2018-07-26T22:00:59.207Z,22.34
2018-07-26T22:03:31.077Z,22.43
2018-07-26T22:06:02.399Z,22.51
2018-07-26T22:08:35.198Z,22.60
2018-07-26T22:11:12.439Z,22.46
2018-07-26T22:13:43.683Z,22.40
2018-07-26T22:16:14.831Z,22.41
2018-07-26T22:18:45.935Z,22.42
2018-07-26T22:21:17.176Z,22.38
2018-07-26T22:23:48.867Z,22.40
2018-07-26T22:26:20.026Z,22.38
2018-07-26T22:28:51.231Z,22.30
2018-07-26T22:31:22.691Z,22.26
2018-07-26T22:33:53.651Z,22.27
2018-07-26T22:36:25.167Z,22.26
2018-07-26T22:38:56.010Z,22.28
2018-07-26T22:41:27.099Z,22.23
2018-07-26T22:43:58.291Z,22.24
2018-07-26T22:46:29.374Z,22.28
2018-07-26T22:49:00.332Z,22.19
2018-07-26T22:51:32.078Z,22.28
2018-07-26T22:54:03.976Z,22.22
2018-07-26T22:56:35.354Z,22.20
2018-07-26T22:59:06.312Z,22.29
2018-07-26T23:01:37.643Z,22.35
2018-07-26T23:04:09.017Z,22.29
2018-07-26T23:06:40.084Z,22.32
2018-07-26T23:09:12.698Z,22.32
2018-07-26T23:11:44.322Z,22.31
2018-07-26T23:14:15.615Z,22.35
2018-07-26T23:16:46.944Z,22.31
2018-07-26T23:19:18.723Z,22.29
2018-07-26T23:21:52.357Z,22.25
2018-07-26T23:24:23.401Z,22.27
2018-07-26T23:26:54.434Z,22.33
2018-07-26T23:29:26.520Z,22.31
2018-07-26T23:31:57.556Z,22.31
2018-07-26T23:34:29.301Z,22.24
2018-07-26T23:37:02.110Z,22.24
2018-07-26T23:39:33.192Z,22.20
2018-07-26T23:42:05.263Z,22.16
2018-07-26T23:44:36.418Z,22.24
2018-07-26T23:47:07.682Z,22.22
2018-07-26T23:49:38.655Z,22.22
2018-07-26T23:52:09.847Z,22.22
2018-07-26T23:54:40.710Z,22.29
2018-07-26T23:57:12.799Z,22.27
2018-07-26T23:59:44.389Z,22.24
